Time;durP1;ratioP1;P1;durP2;ratioP2;P2;SDS_P1;SDS_P2;PMS_P1;PMS_P2;Temp;Humidity;BMP_temperature;BMP_pressure;BME280_temperature;BME280_humidity;BME280_pressure;Samples;Min_cycle;Max_cycle;Signal;HPM_P1;HPM_P2
2022/12/18 00:01:48;;;;;;;24.65;10.43;;;;;;;;;;4736891;30;20047;-83
2022/12/18 00:04:24;;;;;;;25.05;10.93;;;;;;;;;;4749470;30;20078;-82
2022/12/18 00:06:50;;;;;;;21.67;10.00;;;;;;;;;;4735288;30;20474;-82
2022/12/18 00:09:16;;;;;;;25.35;10.18;;;;;;;;;;4751771;30;20101;-83
2022/12/18 00:11:41;;;;;;;27.65;10.82;;;;;;;;;;4737206;30;20077;-84
2022/12/18 00:14:08;;;;;;;24.38;10.23;;;;;;;;;;4751095;30;20036;-83
2022/12/18 00:16:36;;;;;;;24.10;11.43;;;;;;;;;;4751811;30;20133;-83
2022/12/18 00:19:02;;;;;;;25.70;10.27;;;;;;;;;;4750242;30;20032;-80
2022/12/18 00:21:29;;;;;;;27.38;11.15;;;;;;;;;;4748985;30;20055;-81
2022/12/18 00:23:55;;;;;;;26.98;12.18;;;;;;;;;;4737176;30;20031;-83
2022/12/18 00:26:24;;;;;;;24.73;10.82;;;;;;;;;;4750572;30;20054;-83
2022/12/18 00:28:50;;;;;;;24.85;11.38;;;;;;;;;;4751407;30;20502;-83
2022/12/18 00:31:22;;;;;;;25.60;10.60;;;;;;;;;;4742863;30;20036;-83
2022/12/18 00:33:47;;;;;;;29.35;10.80;;;;;;;;;;4757246;30;20039;-83
2022/12/18 00:36:17;;;;;;;25.92;11.35;;;;;;;;;;4752620;30;20036;-83
2022/12/18 00:38:42;;;;;;;25.20;11.45;;;;;;;;;;4750318;30;20090;-83
2022/12/18 00:41:09;;;;;;;27.63;12.13;;;;;;;;;;4747828;30;20424;-83
2022/12/18 00:43:35;;;;;;;28.58;11.07;;;;;;;;;;4750792;30;20092;-83
2022/12/18 00:46:00;;;;;;;25.20;11.70;;;;;;;;;;4750385;30;20099;-81
2022/12/18 00:48:26;;;;;;;25.77;11.68;;;;;;;;;;4736545;30;20460;-83
2022/12/18 00:50:51;;;;;;;26.85;11.77;;;;;;;;;;4739184;30;20065;-82
2022/12/18 00:53:17;;;;;;;25.25;12.55;;;;;;;;;;4740213;30;20473;-81
2022/12/18 00:55:43;;;;;;;25.35;11.93;;;;;;;;;;4747826;30;20526;-83
2022/12/18 00:58:10;;;;;;;28.60;11.73;;;;;;;;;;4733060;30;20429;-82
2022/12/18 01:00:36;;;;;;;26.77;13.38;;;;;;;;;;4749903;30;20040;-83
2022/12/18 01:03:02;;;;;;;29.92;12.35;;;;;;;;;;4736048;30;20058;-83
2022/12/18 01:05:30;;;;;;;27.98;13.27;;;;;;;;;;4751944;30;20058;-83
2022/12/18 01:07:56;;;;;;;28.48;13.48;;;;;;;;;;4738990;30;20036;-82
2022/12/18 01:10:23;;;;;;;25.75;12.77;;;;;;;;;;4750517;30;20044;-82
2022/12/18 01:12:49;;;;;;;31.27;13.80;;;;;;;;;;4751911;30;20028;-83
2022/12/18 01:15:15;;;;;;;28.73;13.40;;;;;;;;;;4753302;30;20490;-83
2022/12/18 01:17:41;;;;;;;23.85;11.95;;;;;;;;;;4735221;30;20036;-83
2022/12/18 01:20:08;;;;;;;24.92;12.70;;;;;;;;;;4749465;30;20043;-80
2022/12/18 01:22:34;;;;;;;28.85;12.95;;;;;;;;;;4750081;30;20035;-83
2022/12/18 01:24:59;;;;;;;29.10;12.57;;;;;;;;;;4732348;30;20040;-83
2022/12/18 01:27:25;;;;;;;24.70;12.25;;;;;;;;;;4734814;30;20528;-83
2022/12/18 01:29:50;;;;;;;27.60;12.07;;;;;;;;;;4732701;30;20036;-82
2022/12/18 01:32:15;;;;;;;28.38;11.95;;;;;;;;;;4748761;30;20402;-82
2022/12/18 01:34:41;;;;;;;23.85;12.02;;;;;;;;;;4741945;30;20071;-82
2022/12/18 01:37:06;;;;;;;28.35;12.23;;;;;;;;;;4728613;30;20478;-83
2022/12/18 01:39:32;;;;;;;25.05;11.75;;;;;;;;;;4728376;30;20054;-83
2022/12/18 01:42:18;;;;;;;28.20;12.57;;;;;;;;;;4747997;30;20033;-82
2022/12/18 01:45:01;;;;;;;22.48;11.60;;;;;;;;;;4747471;30;20043;-82
2022/12/18 01:48:01;;;;;;;23.92;11.60;;;;;;;;;;4743820;30;20529;-83
2022/12/18 01:50:37;;;;;;;28.10;11.43;;;;;;;;;;4737162;30;20075;-83
2022/12/18 01:53:15;;;;;;;25.65;12.15;;;;;;;;;;4745826;30;20119;-83
2022/12/18 01:55:48;;;;;;;28.58;13.43;;;;;;;;;;4747624;30;20032;-83
2022/12/18 01:58:14;;;;;;;26.70;13.70;;;;;;;;;;4726497;30;20072;-83
2022/12/18 02:00:39;;;;;;;25.70;13.32;;;;;;;;;;4734613;30;20070;-82
2022/12/18 02:03:04;;;;;;;28.88;13.40;;;;;;;;;;4732581;30;20455;-83
2022/12/18 02:05:43;;;;;;;26.73;12.88;;;;;;;;;;4729676;30;20048;-83
2022/12/18 02:08:31;;;;;;;28.45;14.15;;;;;;;;;;4747273;30;20036;-83
2022/12/18 02:11:40;;;;;;;27.15;12.82;;;;;;;;;;4750482;30;20043;-83
2022/12/18 02:14:37;;;;;;;23.65;12.35;;;;;;;;;;4736404;30;20438;-81
2022/12/18 02:17:08;;;;;;;30.05;14.85;;;;;;;;;;4727642;30;20047;-83
2022/12/18 02:20:04;;;;;;;27.83;15.05;;;;;;;;;;4750841;30;20431;-83
2022/12/18 02:22:54;;;;;;;27.45;13.82;;;;;;;;;;4749321;30;20031;-82
2022/12/18 02:26:08;;;;;;;26.52;13.07;;;;;;;;;;4741001;30;20113;-83
2022/12/18 02:28:43;;;;;;;28.50;14.30;;;;;;;;;;4709033;30;20104;-83
2022/12/18 02:31:14;;;;;;;29.88;15.38;;;;;;;;;;4734197;30;20051;-83
2022/12/18 02:33:43;;;;;;;31.75;16.08;;;;;;;;;;4747562;30;20036;-82
2022/12/18 02:36:10;;;;;;;25.27;14.02;;;;;;;;;;4747949;30;20347;-83
2022/12/18 02:38:36;;;;;;;26.67;14.80;;;;;;;;;;4731856;30;20035;-83
2022/12/18 02:41:03;;;;;;;27.38;14.50;;;;;;;;;;4742784;30;20032;-83
2022/12/18 02:43:29;;;;;;;28.08;12.80;;;;;;;;;;4731924;30;20054;-83
2022/12/18 02:45:57;;;;;;;24.40;12.30;;;;;;;;;;4747801;30;20036;-83
2022/12/18 02:48:30;;;;;;;22.30;11.32;;;;;;;;;;4747278;30;20109;-83
2022/12/18 02:51:34;;;;;;;23.02;10.65;;;;;;;;;;4731554;30;20110;-82
2022/12/18 02:54:10;;;;;;;23.70;10.98;;;;;;;;;;4729769;30;20044;-83
2022/12/18 02:56:45;;;;;;;21.73;10.40;;;;;;;;;;4743757;30;20032;-80
2022/12/18 02:59:21;;;;;;;18.15;10.10;;;;;;;;;;4744072;30;20028;-83
2022/12/18 03:02:26;;;;;;;20.40;9.90;;;;;;;;;;4745025;30;20460;-82
2022/12/18 03:05:06;;;;;;;20.63;9.60;;;;;;;;;;4730726;30;20052;-82
2022/12/18 03:07:55;;;;;;;18.63;8.80;;;;;;;;;;4725768;30;20052;-83
2022/12/18 03:10:26;;;;;;;22.02;10.25;;;;;;;;;;4740262;30;20044;-83
2022/12/18 03:12:58;;;;;;;18.77;10.20;;;;;;;;;;4731101;30;20043;-83
2022/12/18 03:15:45;;;;;;;19.17;10.60;;;;;;;;;;4731934;30;20126;-83
2022/12/18 03:18:16;;;;;;;20.92;9.95;;;;;;;;;;4743476;30;20090;-80
2022/12/18 03:20:44;;;;;;;21.80;10.05;;;;;;;;;;4730378;30;20478;-83
2022/12/18 03:23:13;;;;;;;21.60;8.95;;;;;;;;;;4748199;30;20032;-83
2022/12/18 03:25:42;;;;;;;20.23;9.85;;;;;;;;;;4744457;30;20049;-83
2022/12/18 03:28:11;;;;;;;22.58;10.02;;;;;;;;;;4743199;30;20040;-82
2022/12/18 03:30:40;;;;;;;18.90;8.98;;;;;;;;;;4746930;30;20036;-83
2022/12/18 03:33:24;;;;;;;16.02;8.90;;;;;;;;;;4744655;30;20061;-81
2022/12/18 03:35:49;;;;;;;17.10;8.60;;;;;;;;;;4733012;30;20064;-83
2022/12/18 03:38:15;;;;;;;14.05;7.93;;;;;;;;;;4728569;30;20431;-83
2022/12/18 03:40:50;;;;;;;16.27;8.15;;;;;;;;;;4731384;30;20097;-82
2022/12/18 03:43:22;;;;;;;19.13;8.63;;;;;;;;;;4745133;30;20470;-81
2022/12/18 03:46:04;;;;;;;17.43;8.07;;;;;;;;;;4732675;30;20032;-83
2022/12/18 03:48:43;;;;;;;15.80;8.15;;;;;;;;;;4742559;30;20590;-82
2022/12/18 03:51:17;;;;;;;17.55;8.18;;;;;;;;;;4750667;30;20435;-83
2022/12/18 03:54:00;;;;;;;16.50;8.02;;;;;;;;;;4744901;30;20044;-82
2022/12/18 03:56:31;;;;;;;17.02;8.18;;;;;;;;;;4744770;30;20043;-82
2022/12/18 03:58:58;;;;;;;16.77;8.88;;;;;;;;;;4722985;30;20043;-83
2022/12/18 04:01:32;;;;;;;17.73;8.27;;;;;;;;;;4730237;30;20043;-83
2022/12/18 04:04:00;;;;;;;17.42;8.27;;;;;;;;;;4745855;30;20111;-80
2022/12/18 04:06:27;;;;;;;17.05;8.18;;;;;;;;;;4731630;30;21672;-83
2022/12/18 04:08:53;;;;;;;15.60;8.43;;;;;;;;;;4732258;30;20029;-83
2022/12/18 04:11:18;;;;;;;13.90;6.55;;;;;;;;;;4727660;30;20482;-82
2022/12/18 04:13:44;;;;;;;16.20;7.47;;;;;;;;;;4731033;30;20127;-81
2022/12/18 04:16:09;;;;;;;17.25;8.00;;;;;;;;;;4750054;30;20036;-83
2022/12/18 04:18:35;;;;;;;18.60;7.85;;;;;;;;;;4727730;30;20118;-82
2022/12/18 04:21:02;;;;;;;15.35;6.85;;;;;;;;;;4748406;30;20040;-82
2022/12/18 04:23:28;;;;;;;17.17;7.72;;;;;;;;;;4731440;30;20042;-82
2022/12/18 04:25:53;;;;;;;15.25;7.50;;;;;;;;;;4728371;30;20032;-82
2022/12/18 04:28:19;;;;;;;14.90;6.32;;;;;;;;;;4752906;30;20039;-82
2022/12/18 04:30:44;;;;;;;16.13;7.95;;;;;;;;;;4726404;30;20040;-82
2022/12/18 04:33:11;;;;;;;15.25;7.30;;;;;;;;;;4739740;30;20113;-83
2022/12/18 04:35:37;;;;;;;17.02;7.38;;;;;;;;;;4759334;30;20038;-82
2022/12/18 04:38:02;;;;;;;16.20;8.20;;;;;;;;;;4752166;30;20036;-82
2022/12/18 04:40:28;;;;;;;12.77;7.03;;;;;;;;;;4751587;30;20032;-82
2022/12/18 04:42:53;;;;;;;13.20;7.00;;;;;;;;;;4736663;30;20567;-82
2022/12/18 04:45:18;;;;;;;12.10;6.18;;;;;;;;;;4733462;30;20028;-82
2022/12/18 04:47:44;;;;;;;16.20;6.93;;;;;;;;;;4750108;30;20057;-81
2022/12/18 04:50:09;;;;;;;14.40;6.93;;;;;;;;;;4733836;30;20052;-82
2022/12/18 04:52:34;;;;;;;14.93;7.32;;;;;;;;;;4749210;30;20069;-83
2022/12/18 04:55:00;;;;;;;13.70;7.25;;;;;;;;;;4748242;30;20063;-82
2022/12/18 04:57:26;;;;;;;12.75;6.93;;;;;;;;;;4733363;30;20036;-81
2022/12/18 04:59:51;;;;;;;16.10;6.50;;;;;;;;;;4748111;30;20043;-82
2022/12/18 05:02:16;;;;;;;15.88;7.32;;;;;;;;;;4744386;30;21076;-83
2022/12/18 05:04:42;;;;;;;13.55;6.65;;;;;;;;;;4753580;30;20028;-81
2022/12/18 05:07:07;;;;;;;12.70;6.15;;;;;;;;;;4735785;30;20062;-82
2022/12/18 05:09:32;;;;;;;15.05;6.38;;;;;;;;;;4745417;30;20049;-82
2022/12/18 05:11:58;;;;;;;12.65;6.53;;;;;;;;;;4748332;30;20032;-82
2022/12/18 05:14:23;;;;;;;14.13;7.50;;;;;;;;;;4734665;30;20032;-82
2022/12/18 05:16:48;;;;;;;12.32;6.28;;;;;;;;;;4748194;30;20032;-79
2022/12/18 05:19:14;;;;;;;13.55;6.60;;;;;;;;;;4728026;30;20043;-82
2022/12/18 05:21:39;;;;;;;11.95;5.85;;;;;;;;;;4732605;30;20035;-81
2022/12/18 05:24:05;;;;;;;11.88;6.20;;;;;;;;;;4751307;30;20520;-82
2022/12/18 05:26:30;;;;;;;13.27;7.20;;;;;;;;;;4731338;30;20075;-81
2022/12/18 05:28:55;;;;;;;13.32;6.78;;;;;;;;;;4746826;30;20444;-82
2022/12/18 05:31:21;;;;;;;11.07;6.40;;;;;;;;;;4732042;30;20061;-81
2022/12/18 05:33:49;;;;;;;14.02;6.93;;;;;;;;;;4744589;30;20036;-81
2022/12/18 05:36:15;;;;;;;15.98;6.75;;;;;;;;;;4744218;30;20040;-82
2022/12/18 05:38:41;;;;;;;14.82;7.38;;;;;;;;;;4735260;30;20030;-82
2022/12/18 05:41:07;;;;;;;14.35;6.72;;;;;;;;;;4735441;30;20081;-82
2022/12/18 05:43:35;;;;;;;13.80;7.47;;;;;;;;;;4736101;30;20390;-82
2022/12/18 05:46:10;;;;;;;12.82;6.43;;;;;;;;;;4733826;30;20070;-82
2022/12/18 05:48:36;;;;;;;14.90;7.97;;;;;;;;;;4746609;30;20060;-82
2022/12/18 05:51:19;;;;;;;18.67;7.20;;;;;;;;;;4730348;30;20036;-81
2022/12/18 05:53:44;;;;;;;13.50;6.80;;;;;;;;;;4747908;30;20111;-82
2022/12/18 05:56:14;;;;;;;13.77;6.93;;;;;;;;;;4730736;30;20573;-82
2022/12/18 05:58:40;;;;;;;15.40;7.43;;;;;;;;;;4730942;30;20707;-80
2022/12/18 06:01:17;;;;;;;10.30;5.97;;;;;;;;;;4728421;30;20122;-82
2022/12/18 06:03:43;;;;;;;11.88;6.72;;;;;;;;;;4732146;30;20094;-81
2022/12/18 06:06:23;;;;;;;14.30;6.18;;;;;;;;;;4740880;30;20040;-81
2022/12/18 06:08:50;;;;;;;12.60;6.07;;;;;;;;;;4729936;30;20024;-82
2022/12/18 06:11:22;;;;;;;12.60;6.97;;;;;;;;;;4734204;30;20048;-82
2022/12/18 06:13:53;;;;;;;13.10;7.00;;;;;;;;;;4751124;30;20032;-82
2022/12/18 06:16:19;;;;;;;11.88;6.40;;;;;;;;;;4748618;30;20032;-82
2022/12/18 06:18:44;;;;;;;11.15;6.47;;;;;;;;;;4745740;30;20582;-82
2022/12/18 06:21:09;;;;;;;13.80;6.82;;;;;;;;;;4745186;30;20032;-81
2022/12/18 06:23:35;;;;;;;14.48;7.20;;;;;;;;;;4744884;30;20043;-82
2022/12/18 06:26:11;;;;;;;10.43;6.03;;;;;;;;;;4749929;30;20416;-82
2022/12/18 06:28:36;;;;;;;11.35;5.80;;;;;;;;;;4734105;30;20035;-82
2022/12/18 06:31:03;;;;;;;10.45;5.80;;;;;;;;;;4733400;30;20036;-82
2022/12/18 06:33:29;;;;;;;12.10;6.43;;;;;;;;;;4752655;30;20043;-82
2022/12/18 06:36:00;;;;;;;12.82;6.72;;;;;;;;;;4752501;30;20040;-82
2022/12/18 06:38:26;;;;;;;13.80;6.60;;;;;;;;;;4740830;30;21580;-82
2022/12/18 06:40:51;;;;;;;11.15;6.10;;;;;;;;;;4725388;30;20525;-82
2022/12/18 06:43:16;;;;;;;14.70;7.10;;;;;;;;;;4733248;30;20453;-82
2022/12/18 06:45:42;;;;;;;15.90;6.82;;;;;;;;;;4745383;30;20089;-82
2022/12/18 06:48:07;;;;;;;11.98;5.80;;;;;;;;;;4730560;30;20139;-82
2022/12/18 06:50:32;;;;;;;18.42;7.63;;;;;;;;;;4748252;30;20032;-82
2022/12/18 06:52:58;;;;;;;14.55;6.80;;;;;;;;;;4748692;30;20031;-81
2022/12/18 06:55:24;;;;;;;13.40;6.65;;;;;;;;;;4730342;30;20472;-82
2022/12/18 06:57:49;;;;;;;13.10;6.80;;;;;;;;;;4744942;30;20035;-82
2022/12/18 07:00:15;;;;;;;12.93;6.97;;;;;;;;;;4726829;30;20036;-82
2022/12/18 07:02:40;;;;;;;15.98;7.20;;;;;;;;;;4745746;30;20036;-81
2022/12/18 07:05:06;;;;;;;17.05;8.10;;;;;;;;;;4728877;30;20148;-82
2022/12/18 07:07:34;;;;;;;14.45;7.13;;;;;;;;;;4729963;30;20161;-82
2022/12/18 07:09:59;;;;;;;14.15;6.60;;;;;;;;;;4749188;30;20070;-82
2022/12/18 07:12:26;;;;;;;13.65;6.80;;;;;;;;;;4744087;30;20477;-80
2022/12/18 07:14:51;;;;;;;17.38;7.50;;;;;;;;;;4747816;30;20047;-82
2022/12/18 07:17:16;;;;;;;14.27;6.85;;;;;;;;;;4747234;30;20036;-82
2022/12/18 07:19:42;;;;;;;11.35;6.72;;;;;;;;;;4744817;30;21317;-81
2022/12/18 07:22:07;;;;;;;12.55;6.55;;;;;;;;;;4731954;30;20048;-82
2022/12/18 07:24:34;;;;;;;12.65;6.53;;;;;;;;;;4731364;30;20128;-82
2022/12/18 07:26:59;;;;;;;13.65;7.60;;;;;;;;;;4728594;30;20081;-81
2022/12/18 07:29:24;;;;;;;13.13;7.18;;;;;;;;;;4751209;30;20069;-82
2022/12/18 07:31:50;;;;;;;10.55;5.97;;;;;;;;;;4735091;30;20039;-82
2022/12/18 07:34:15;;;;;;;13.77;6.75;;;;;;;;;;4726467;30;20490;-81
2022/12/18 07:36:41;;;;;;;12.98;6.13;;;;;;;;;;4727371;30;20497;-81
2022/12/18 07:39:07;;;;;;;17.30;7.13;;;;;;;;;;4730188;30;20487;-82
2022/12/18 07:41:32;;;;;;;14.13;7.32;;;;;;;;;;4731947;30;20486;-82
2022/12/18 07:43:58;;;;;;;11.82;6.07;;;;;;;;;;4743752;30;20074;-81
2022/12/18 07:46:23;;;;;;;11.82;6.28;;;;;;;;;;4747725;30;20115;-82
2022/12/18 07:48:48;;;;;;;11.32;6.22;;;;;;;;;;4732597;30;20052;-82
2022/12/18 07:51:14;;;;;;;15.30;7.53;;;;;;;;;;4725527;30;20024;-81
2022/12/18 07:53:40;;;;;;;11.48;6.22;;;;;;;;;;4730487;30;20526;-82
2022/12/18 07:56:08;;;;;;;9.75;6.35;;;;;;;;;;4742876;30;20044;-82
2022/12/18 07:58:34;;;;;;;16.52;7.53;;;;;;;;;;4731570;30;20137;-82
2022/12/18 08:01:08;;;;;;;13.50;5.88;;;;;;;;;;4744484;30;20130;-82
2022/12/18 08:03:34;;;;;;;12.38;6.32;;;;;;;;;;4743373;30;20052;-82
2022/12/18 08:06:04;;;;;;;13.20;6.10;;;;;;;;;;4730450;30;20040;-82
2022/12/18 08:08:30;;;;;;;12.93;6.50;;;;;;;;;;4750414;30;20059;-82
2022/12/18 08:10:56;;;;;;;17.63;8.43;;;;;;;;;;4750247;30;20028;-82
2022/12/18 08:13:22;;;;;;;14.40;7.35;;;;;;;;;;4743765;30;20052;-82
2022/12/18 08:16:02;;;;;;;12.75;6.72;;;;;;;;;;4736039;30;20036;-82
2022/12/18 08:18:27;;;;;;;16.55;7.20;;;;;;;;;;4752321;30;20040;-82
2022/12/18 08:20:54;;;;;;;13.07;7.05;;;;;;;;;;4733850;30;20047;-81
2022/12/18 08:23:19;;;;;;;14.63;7.40;;;;;;;;;;4754603;30;20390;-82
2022/12/18 08:25:45;;;;;;;12.82;6.65;;;;;;;;;;4733014;30;20043;-82
2022/12/18 08:28:11;;;;;;;10.05;5.47;;;;;;;;;;4747900;30;20050;-82
2022/12/18 08:30:36;;;;;;;18.40;6.25;;;;;;;;;;4750390;30;20489;-82
2022/12/18 08:33:03;;;;;;;10.55;5.97;;;;;;;;;;4736092;30;20047;-82
2022/12/18 08:35:29;;;;;;;13.40;7.00;;;;;;;;;;4753834;30;20058;-83
2022/12/18 08:37:54;;;;;;;13.02;6.57;;;;;;;;;;4735302;30;20035;-83
2022/12/18 08:40:20;;;;;;;16.35;6.93;;;;;;;;;;4747386;30;20485;-81
2022/12/18 08:45:29;;;;;;;12.88;6.22;;;;;;;;;;4745777;30;20114;-82
2022/12/18 08:47:55;;;;;;;11.57;6.25;;;;;;;;;;4747012;30;20040;-82
2022/12/18 08:50:20;;;;;;;14.30;7.07;;;;;;;;;;4749825;30;20409;-82
2022/12/18 08:52:45;;;;;;;12.68;6.78;;;;;;;;;;4727854;30;20110;-83
2022/12/18 08:55:11;;;;;;;12.82;5.97;;;;;;;;;;4730644;30;20039;-82
2022/12/18 08:57:36;;;;;;;15.80;6.82;;;;;;;;;;4746705;30;20076;-81
2022/12/18 09:00:03;;;;;;;16.98;7.13;;;;;;;;;;4748578;30;21662;-82
2022/12/18 09:02:29;;;;;;;10.10;6.45;;;;;;;;;;4746262;30;20043;-82
2022/12/18 09:04:54;;;;;;;13.95;7.32;;;;;;;;;;4749858;30;20144;-82
2022/12/18 09:07:19;;;;;;;14.13;7.40;;;;;;;;;;4748428;30;20048;-81
2022/12/18 09:09:45;;;;;;;12.20;6.72;;;;;;;;;;4731556;30;20040;-83
2022/12/18 09:12:10;;;;;;;12.48;6.97;;;;;;;;;;4749299;30;20032;-82
2022/12/18 09:14:36;;;;;;;15.13;6.93;;;;;;;;;;4749125;30;20036;-83
2022/12/18 09:17:01;;;;;;;12.35;6.40;;;;;;;;;;4747291;30;20107;-82
2022/12/18 09:19:27;;;;;;;11.82;6.65;;;;;;;;;;4728290;30;20032;-82
2022/12/18 09:21:52;;;;;;;13.05;6.88;;;;;;;;;;4732905;30;20506;-81
2022/12/18 09:24:17;;;;;;;15.30;7.47;;;;;;;;;;4748167;30;20042;-80
2022/12/18 09:26:43;;;;;;;14.38;6.35;;;;;;;;;;4745554;30;20418;-82
2022/12/18 09:29:09;;;;;;;13.38;7.60;;;;;;;;;;4746048;30;21445;-82
2022/12/18 09:31:35;;;;;;;12.63;6.65;;;;;;;;;;4744269;30;20117;-83
2022/12/18 09:34:00;;;;;;;10.82;6.22;;;;;;;;;;4735131;30;20032;-83
2022/12/18 09:36:26;;;;;;;15.68;6.95;;;;;;;;;;4736635;30;20028;-83
2022/12/18 09:38:52;;;;;;;12.18;6.47;;;;;;;;;;4748696;30;20032;-83
2022/12/18 09:41:18;;;;;;;13.93;6.70;;;;;;;;;;4733283;30;20040;-82
2022/12/18 09:43:55;;;;;;;13.35;6.95;;;;;;;;;;4742116;30;20032;-83
2022/12/18 09:46:28;;;;;;;14.25;6.63;;;;;;;;;;4724207;30;20043;-83
2022/12/18 09:49:02;;;;;;;12.73;6.03;;;;;;;;;;4735815;30;20052;-83
2022/12/18 09:51:42;;;;;;;12.65;7.20;;;;;;;;;;4753117;30;20054;-83
2022/12/18 09:54:16;;;;;;;12.27;5.65;;;;;;;;;;4734535;30;22003;-82
2022/12/18 09:56:42;;;;;;;13.18;6.50;;;;;;;;;;4749709;30;20040;-81
2022/12/18 09:59:39;;;;;;;12.02;6.85;;;;;;;;;;4732499;30;20033;-83
2022/12/18 10:02:32;;;;;;;14.05;6.75;;;;;;;;;;4739599;30;20075;-84
2022/12/18 10:05:12;;;;;;;13.23;6.45;;;;;;;;;;4730111;30;20421;-82
2022/12/18 10:07:55;;;;;;;14.63;7.07;;;;;;;;;;4731341;30;20078;-82
2022/12/18 10:11:01;;;;;;;11.57;6.00;;;;;;;;;;4747004;30;20499;-83
2022/12/18 10:13:46;;;;;;;14.15;6.65;;;;;;;;;;4745531;30;20032;-83
2022/12/18 10:16:22;;;;;;;13.25;6.60;;;;;;;;;;4721724;30;20508;-82
2022/12/18 10:19:06;;;;;;;12.85;7.07;;;;;;;;;;4748161;30;20040;-83
2022/12/18 10:21:38;;;;;;;14.55;6.70;;;;;;;;;;4753171;30;20377;-83
2022/12/18 10:24:52;;;;;;;11.95;6.40;;;;;;;;;;4735811;30;20126;-83
2022/12/18 10:27:21;;;;;;;11.77;5.97;;;;;;;;;;4719519;30;20050;-82
2022/12/18 10:29:47;;;;;;;14.00;7.45;;;;;;;;;;4746405;30;20498;-84
2022/12/18 10:32:19;;;;;;;16.13;6.32;;;;;;;;;;4731938;30;20034;-84
2022/12/18 10:34:46;;;;;;;15.52;8.05;;;;;;;;;;4751357;30;20039;-83
2022/12/18 10:37:17;;;;;;;14.20;7.25;;;;;;;;;;4750595;30;20040;-83
2022/12/18 10:39:43;;;;;;;13.38;6.95;;;;;;;;;;4756953;30;20489;-83
2022/12/18 10:42:27;;;;;;;14.57;7.30;;;;;;;;;;4745175;30;20040;-83
2022/12/18 10:45:03;;;;;;;12.55;7.28;;;;;;;;;;4748034;30;20055;-84
2022/12/18 10:47:28;;;;;;;15.40;7.28;;;;;;;;;;4751786;30;20401;-83
2022/12/18 10:49:55;;;;;;;13.18;7.03;;;;;;;;;;4733555;30;20060;-82
2022/12/18 10:52:21;;;;;;;16.75;7.20;;;;;;;;;;4750433;30;20071;-83
2022/12/18 10:54:55;;;;;;;16.15;7.70;;;;;;;;;;4749724;30;20482;-82
2022/12/18 10:57:32;;;;;;;17.10;7.82;;;;;;;;;;4750732;30;20368;-83
2022/12/18 10:59:59;;;;;;;17.15;7.78;;;;;;;;;;4734806;30;20564;-82
2022/12/18 11:02:34;;;;;;;14.32;7.85;;;;;;;;;;4751991;30;20385;-84
2022/12/18 11:05:00;;;;;;;13.93;7.43;;;;;;;;;;4734573;30;20046;-83
2022/12/18 11:07:40;;;;;;;12.88;6.97;;;;;;;;;;4749811;30;20032;-83
2022/12/18 11:10:17;;;;;;;14.30;7.28;;;;;;;;;;4745373;30;20040;-83
2022/12/18 11:12:42;;;;;;;14.20;6.63;;;;;;;;;;4751149;30;20457;-83
2022/12/18 11:15:18;;;;;;;13.68;6.72;;;;;;;;;;4735203;30;20123;-83
2022/12/18 11:17:47;;;;;;;16.08;7.55;;;;;;;;;;4751158;30;21552;-83
2022/12/18 11:20:24;;;;;;;15.88;7.03;;;;;;;;;;4734289;30;20097;-82
2022/12/18 11:23:04;;;;;;;11.57;6.63;;;;;;;;;;4743828;30;20827;-83
2022/12/18 11:25:30;;;;;;;15.50;7.47;;;;;;;;;;4744671;30;20048;-83
2022/12/18 11:27:59;;;;;;;14.52;6.88;;;;;;;;;;4733964;30;20644;-83
2022/12/18 11:30:34;;;;;;;15.60;6.32;;;;;;;;;;4732265;30;20055;-83
2022/12/18 11:33:21;;;;;;;15.45;6.95;;;;;;;;;;4750434;30;20039;-83
2022/12/18 11:35:53;;;;;;;12.27;5.90;;;;;;;;;;4745283;30;20098;-83
2022/12/18 11:38:35;;;;;;;12.90;7.50;;;;;;;;;;4746963;30;20409;-83
2022/12/18 11:41:06;;;;;;;12.48;6.57;;;;;;;;;;4740897;30;20040;-83
2022/12/18 11:43:58;;;;;;;13.50;6.75;;;;;;;;;;4744065;30;20040;-83
2022/12/18 11:46:41;;;;;;;13.23;6.93;;;;;;;;;;4731440;30;20501;-83
2022/12/18 11:49:15;;;;;;;8.95;5.47;;;;;;;;;;4734034;30;20441;-83
2022/12/18 11:51:57;;;;;;;14.13;7.47;;;;;;;;;;4731096;30;20565;-83
2022/12/18 11:54:22;;;;;;;14.90;7.38;;;;;;;;;;4731688;30;20512;-82
2022/12/18 11:57:03;;;;;;;20.17;8.30;;;;;;;;;;4730934;30;20040;-82
2022/12/18 11:59:33;;;;;;;16.10;7.35;;;;;;;;;;4749166;30;20469;-82
2022/12/18 12:02:44;;;;;;;15.40;7.25;;;;;;;;;;4750079;30;20028;-83
2022/12/18 12:05:37;;;;;;;13.68;6.85;;;;;;;;;;4730847;30;20066;-83
2022/12/18 12:08:18;;;;;;;12.98;6.45;;;;;;;;;;4750600;30;20069;-83
2022/12/18 12:11:02;;;;;;;15.07;7.47;;;;;;;;;;4740819;30;20039;-83
2022/12/18 12:13:45;;;;;;;17.00;7.03;;;;;;;;;;4728618;30;20115;-82
2022/12/18 12:16:17;;;;;;;13.75;7.38;;;;;;;;;;4727300;30;20040;-82
2022/12/18 12:18:55;;;;;;;16.63;7.18;;;;;;;;;;4743276;30;20113;-82
2022/12/18 12:21:35;;;;;;;13.93;6.75;;;;;;;;;;4732560;30;20131;-83
2022/12/18 12:24:19;;;;;;;12.60;6.85;;;;;;;;;;4727042;30;20040;-82
2022/12/18 12:26:44;;;;;;;12.75;6.40;;;;;;;;;;4746176;30;20035;-83
2022/12/18 12:29:37;;;;;;;16.10;8.18;;;;;;;;;;4743321;30;20054;-84
2022/12/18 12:32:11;;;;;;;14.65;7.45;;;;;;;;;;4739007;30;20036;-83
2022/12/18 12:34:59;;;;;;;13.18;6.95;;;;;;;;;;4736311;30;20044;-82
2022/12/18 12:37:59;;;;;;;18.55;7.53;;;;;;;;;;4747298;30;20040;-82
2022/12/18 12:40:28;;;;;;;16.58;7.53;;;;;;;;;;4738254;30;20058;-82
2022/12/18 12:43:14;;;;;;;14.90;7.85;;;;;;;;;;4728650;30;20364;-83
2022/12/18 12:46:17;;;;;;;14.68;7.22;;;;;;;;;;4726971;30;20153;-81
2022/12/18 12:48:50;;;;;;;15.07;7.90;;;;;;;;;;4693620;30;20141;-81
2022/12/18 12:51:33;;;;;;;14.98;7.80;;;;;;;;;;4733600;30;20040;-83
2022/12/18 12:54:01;;;;;;;13.70;7.00;;;;;;;;;;4723708;30;20047;-81
2022/12/18 12:57:09;;;;;;;17.77;8.15;;;;;;;;;;4723614;30;20525;-84
2022/12/18 13:00:00;;;;;;;14.82;7.25;;;;;;;;;;4718161;30;20040;-83
2022/12/18 13:02:50;;;;;;;15.23;7.95;;;;;;;;;;4738223;30;20032;-79
2022/12/18 13:05:26;;;;;;;13.35;7.35;;;;;;;;;;4726376;30;20039;-84
2022/12/18 13:08:25;;;;;;;17.83;8.05;;;;;;;;;;4707281;30;20048;-85
2022/12/18 13:12:55;;;;;;;14.60;7.72;;;;;;;;;;4705050;30;20044;-83
2022/12/18 13:13:50;;;;;;;14.43;7.22;;;;;;;;;;4742272;30;20112;-84
2022/12/18 13:16:20;;;;;;;15.25;7.97;;;;;;;;;;4741275;30;20031;-83
2022/12/18 13:18:54;;;;;;;13.80;7.95;;;;;;;;;;4743184;30;20814;-85
2022/12/18 13:21:30;;;;;;;14.82;7.47;;;;;;;;;;4726652;30;20565;-84
2022/12/18 13:23:57;;;;;;;11.23;6.40;;;;;;;;;;4722595;30;20383;-85
2022/12/18 13:26:22;;;;;;;16.40;8.43;;;;;;;;;;4733769;30;20044;-81
2022/12/18 13:28:47;;;;;;;17.15;7.80;;;;;;;;;;4732818;30;20040;-82
2022/12/18 13:31:35;;;;;;;15.18;7.75;;;;;;;;;;4724585;30;20028;-84
2022/12/18 13:34:18;;;;;;;15.48;7.70;;;;;;;;;;4733627;30;20056;-84
2022/12/18 13:36:44;;;;;;;14.65;7.40;;;;;;;;;;4735164;30;20043;-83
2022/12/18 13:39:18;;;;;;;16.83;7.45;;;;;;;;;;4741476;30;20040;-84
2022/12/18 13:41:46;;;;;;;14.80;7.35;;;;;;;;;;4736070;30;20040;-83
2022/12/18 13:44:32;;;;;;;15.93;8.35;;;;;;;;;;4745481;30;20509;-82
2022/12/18 13:46:59;;;;;;;14.82;7.55;;;;;;;;;;4740965;30;20032;-83
2022/12/18 13:49:37;;;;;;;13.70;7.78;;;;;;;;;;4724554;30;20410;-85
2022/12/18 13:52:15;;;;;;;15.48;7.47;;;;;;;;;;4723156;30;20127;-83
2022/12/18 13:54:42;;;;;;;19.70;8.70;;;;;;;;;;4738672;30;20032;-84
2022/12/18 13:57:26;;;;;;;14.93;7.38;;;;;;;;;;4738844;30;20533;-84
2022/12/18 13:59:51;;;;;;;16.30;7.50;;;;;;;;;;4732600;30;20048;-84
2022/12/18 14:02:21;;;;;;;13.90;7.18;;;;;;;;;;4729058;30;20032;-82
2022/12/18 14:04:48;;;;;;;16.48;7.70;;;;;;;;;;4737982;30;20110;-83
2022/12/18 14:07:20;;;;;;;22.20;8.43;;;;;;;;;;4725840;30;20067;-83
2022/12/18 14:09:56;;;;;;;16.67;8.15;;;;;;;;;;4726058;30;20036;-84
2022/12/18 14:15:33;;;;;;;16.80;8.15;;;;;;;;;;4744211;30;20620;-85
2022/12/18 14:18:14;;;;;;;14.32;7.57;;;;;;;;;;4739607;30;20397;-85
2022/12/18 14:20:43;;;;;;;18.40;8.55;;;;;;;;;;4735026;30;20451;-83
2022/12/18 14:23:47;;;;;;;21.20;6.80;;;;;;;;;;4750058;30;20447;-82
2022/12/18 14:26:29;;;;;;;17.95;7.85;;;;;;;;;;5080702;27;20432;-85
2022/12/18 14:29:17;;;;;;;15.23;7.07;;;;;;;;;;5092737;28;20036;-85
2022/12/18 14:31:42;;;;;;;14.70;8.15;;;;;;;;;;5076061;28;20384;-86
2022/12/18 14:34:15;;;;;;;16.15;7.93;;;;;;;;;;5085254;28;20070;-86
2022/12/18 14:36:41;;;;;;;18.17;8.35;;;;;;;;;;5079274;28;20034;-85
2022/12/18 14:39:17;;;;;;;15.85;8.00;;;;;;;;;;5082915;28;20040;-86
2022/12/18 14:41:42;;;;;;;17.67;8.68;;;;;;;;;;5088081;28;20502;-86
2022/12/18 14:44:12;;;;;;;13.60;7.68;;;;;;;;;;5083370;28;22337;-86
2022/12/18 14:46:39;;;;;;;14.38;7.50;;;;;;;;;;5095534;28;20388;-86
2022/12/18 14:49:29;;;;;;;14.98;8.18;;;;;;;;;;5105112;28;20050;-85
2022/12/18 14:51:57;;;;;;;16.38;7.80;;;;;;;;;;5081512;28;20021;-85
2022/12/18 14:54:24;;;;;;;17.17;8.00;;;;;;;;;;5084722;28;20074;-86
2022/12/18 14:56:54;;;;;;;17.23;8.90;;;;;;;;;;5087038;28;20102;-85
2022/12/18 14:59:22;;;;;;;16.35;8.55;;;;;;;;;;5100318;28;20039;-85